sensor_id;sensor_type;location;lat;lon;timestamp;P1;durP1;ratioP1;P2;durP2;ratioP2
79592;SDS011;69074;45.164;9.704;2023-08-08T00:01:38;1.8;;;0.9;;
79592;SDS011;69074;45.164;9.704;2023-08-08T00:04:03;1.8;;;0.9;;
79592;SDS011;69074;45.164;9.704;2023-08-08T00:06:28;1.8;;;0.9;;
79592;SDS011;69074;45.164;9.704;2023-08-08T00:08:53;1.8;;;0.9;;
79592;SDS011;69074;45.164;9.704;2023-08-08T00:11:18;1.2;;;0.7;;
79592;SDS011;69074;45.164;9.704;2023-08-08T00:13:43;1.2;;;0.7;;
79592;SDS011;69074;45.164;9.704;2023-08-08T00:16:08;1.2;;;0.7;;
79592;SDS011;69074;45.164;9.704;2023-08-08T00:18:33;1.2;;;0.7;;
79592;SDS011;69074;45.164;9.704;2023-08-08T00:20:58;1.2;;;0.7;;
79592;SDS011;69074;45.164;9.704;2023-08-08T00:23:23;1.2;;;0.7;;
79592;SDS011;69074;45.164;9.704;2023-08-08T00:25:48;2.5;;;0.9;;
79592;SDS011;69074;45.164;9.704;2023-08-08T00:28:13;2.5;;;0.9;;
79592;SDS011;69074;45.164;9.704;2023-08-08T00:30:38;2.5;;;0.9;;
79592;SDS011;69074;45.164;9.704;2023-08-08T00:33:03;2.5;;;0.9;;
79592;SDS011;69074;45.164;9.704;2023-08-08T00:35:28;2.5;;;0.9;;
79592;SDS011;69074;45.164;9.704;2023-08-08T00:37:53;2.5;;;0.9;;
79592;SDS011;69074;45.164;9.704;2023-08-08T00:40:18;1.6;;;0.8;;
79592;SDS011;69074;45.164;9.704;2023-08-08T00:42:43;1.6;;;0.8;;
79592;SDS011;69074;45.164;9.704;2023-08-08T00:45:08;1.6;;;0.8;;
79592;SDS011;69074;45.164;9.704;2023-08-08T00:47:33;1.6;;;0.8;;
79592;SDS011;69074;45.164;9.704;2023-08-08T00:49:58;1.6;;;0.8;;
79592;SDS011;69074;45.164;9.704;2023-08-08T00:52:23;1.6;;;0.8;;
79592;SDS011;69074;45.164;9.704;2023-08-08T00:54:48;3.4;;;1.2;;
79592;SDS011;69074;45.164;9.704;2023-08-08T00:57:13;3.4;;;1.2;;
79592;SDS011;69074;45.164;9.704;2023-08-08T00:59:38;3.4;;;1.2;;
79592;SDS011;69074;45.164;9.704;2023-08-08T01:02:03;3.4;;;1.2;;
79592;SDS011;69074;45.164;9.704;2023-08-08T01:04:28;3.4;;;1.2;;
79592;SDS011;69074;45.164;9.704;2023-08-08T01:06:55;3.4;;;1.2;;
79592;SDS011;69074;45.164;9.704;2023-08-08T01:09:20;1.1;;;0.9;;
79592;SDS011;69074;45.164;9.704;2023-08-08T01:11:43;1.1;;;0.9;;
79592;SDS011;69074;45.164;9.704;2023-08-08T01:14:08;1.1;;;0.9;;
79592;SDS011;69074;45.164;9.704;2023-08-08T01:16:33;1.1;;;0.9;;
79592;SDS011;69074;45.164;9.704;2023-08-08T01:18:58;1.1;;;0.9;;
79592;SDS011;69074;45.164;9.704;2023-08-08T01:21:24;1.1;;;0.9;;
79592;SDS011;69074;45.164;9.704;2023-08-08T01:23:52;1.1;;;0.9;;
79592;SDS011;69074;45.164;9.704;2023-08-08T01:26:13;2.1;;;0.8;;
79592;SDS011;69074;45.164;9.704;2023-08-08T01:28:39;2.1;;;0.8;;
79592;SDS011;69074;45.164;9.704;2023-08-08T01:31:03;2.1;;;0.8;;
79592;SDS011;69074;45.164;9.704;2023-08-08T01:33:28;2.1;;;0.8;;
79592;SDS011;69074;45.164;9.704;2023-08-08T01:35:55;2.1;;;0.8;;
79592;SDS011;69074;45.164;9.704;2023-08-08T01:38:19;2.1;;;0.8;;
79592;SDS011;69074;45.164;9.704;2023-08-08T01:40:44;1.9;;;0.8;;
79592;SDS011;69074;45.164;9.704;2023-08-08T01:43:09;1.9;;;0.8;;
79592;SDS011;69074;45.164;9.704;2023-08-08T01:45:34;1.9;;;0.8;;
79592;SDS011;69074;45.164;9.704;2023-08-08T01:47:59;1.9;;;0.8;;
79592;SDS011;69074;45.164;9.704;2023-08-08T01:50:24;1.9;;;0.8;;
79592;SDS011;69074;45.164;9.704;2023-08-08T01:52:49;1.9;;;0.8;;
79592;SDS011;69074;45.164;9.704;2023-08-08T01:55:14;2.7;;;0.8;;
79592;SDS011;69074;45.164;9.704;2023-08-08T01:57:39;2.7;;;0.8;;
79592;SDS011;69074;45.164;9.704;2023-08-08T02:00:06;2.7;;;0.8;;
79592;SDS011;69074;45.164;9.704;2023-08-08T02:02:29;2.7;;;0.8;;
79592;SDS011;69074;45.164;9.704;2023-08-08T02:04:54;2.7;;;0.8;;
79592;SDS011;69074;45.164;9.704;2023-08-08T02:07:19;2.7;;;0.8;;
79592;SDS011;69074;45.164;9.704;2023-08-08T02:09:44;2.3;;;1.1;;
79592;SDS011;69074;45.164;9.704;2023-08-08T02:12:09;2.3;;;1.1;;
79592;SDS011;69074;45.164;9.704;2023-08-08T02:14:34;2.3;;;1.1;;
79592;SDS011;69074;45.164;9.704;2023-08-08T02:16:59;2.3;;;1.1;;
79592;SDS011;69074;45.164;9.704;2023-08-08T02:19:24;2.3;;;1.1;;
79592;SDS011;69074;45.164;9.704;2023-08-08T02:21:49;2.3;;;1.1;;
79592;SDS011;69074;45.164;9.704;2023-08-08T02:24:14;2.4;;;1.0;;
79592;SDS011;69074;45.164;9.704;2023-08-08T02:26:39;2.4;;;1.0;;
79592;SDS011;69074;45.164;9.704;2023-08-08T02:29:04;2.4;;;1.0;;
79592;SDS011;69074;45.164;9.704;2023-08-08T02:31:29;2.4;;;1.0;;
79592;SDS011;69074;45.164;9.704;2023-08-08T02:33:54;2.4;;;1.0;;
79592;SDS011;69074;45.164;9.704;2023-08-08T02:36:19;2.4;;;1.0;;
79592;SDS011;69074;45.164;9.704;2023-08-08T02:38:44;2.4;;;1.0;;
79592;SDS011;69074;45.164;9.704;2023-08-08T02:41:09;3.2;;;1.1;;
79592;SDS011;69074;45.164;9.704;2023-08-08T02:43:34;3.2;;;1.1;;
79592;SDS011;69074;45.164;9.704;2023-08-08T02:45:59;3.2;;;1.1;;
79592;SDS011;69074;45.164;9.704;2023-08-08T02:48:24;3.2;;;1.1;;
79592;SDS011;69074;45.164;9.704;2023-08-08T02:50:49;3.2;;;1.1;;
79592;SDS011;69074;45.164;9.704;2023-08-08T02:53:14;3.2;;;1.1;;
79592;SDS011;69074;45.164;9.704;2023-08-08T02:55:39;2.0;;;1.0;;
79592;SDS011;69074;45.164;9.704;2023-08-08T02:58:04;2.0;;;1.0;;
79592;SDS011;69074;45.164;9.704;2023-08-08T03:00:29;2.0;;;1.0;;
79592;SDS011;69074;45.164;9.704;2023-08-08T03:02:54;2.0;;;1.0;;
79592;SDS011;69074;45.164;9.704;2023-08-08T03:05:19;2.0;;;1.0;;
79592;SDS011;69074;45.164;9.704;2023-08-08T03:07:44;2.0;;;1.0;;
79592;SDS011;69074;45.164;9.704;2023-08-08T03:10:09;3.5;;;1.3;;
79592;SDS011;69074;45.164;9.704;2023-08-08T03:12:34;3.5;;;1.3;;
79592;SDS011;69074;45.164;9.704;2023-08-08T03:14:59;3.5;;;1.3;;
79592;SDS011;69074;45.164;9.704;2023-08-08T03:17:24;3.5;;;1.3;;
79592;SDS011;69074;45.164;9.704;2023-08-08T03:19:49;3.5;;;1.3;;
79592;SDS011;69074;45.164;9.704;2023-08-08T03:22:14;3.5;;;1.3;;
79592;SDS011;69074;45.164;9.704;2023-08-08T03:24:39;1.7;;;0.9;;
79592;SDS011;69074;45.164;9.704;2023-08-08T03:27:04;1.7;;;0.9;;
79592;SDS011;69074;45.164;9.704;2023-08-08T03:29:29;1.7;;;0.9;;
79592;SDS011;69074;45.164;9.704;2023-08-08T03:31:54;1.7;;;0.9;;
79592;SDS011;69074;45.164;9.704;2023-08-08T03:34:19;1.7;;;0.9;;
79592;SDS011;69074;45.164;9.704;2023-08-08T03:36:44;1.7;;;0.9;;
79592;SDS011;69074;45.164;9.704;2023-08-08T03:39:09;2.0;;;1.2;;
79592;SDS011;69074;45.164;9.704;2023-08-08T03:41:34;2.0;;;1.2;;
79592;SDS011;69074;45.164;9.704;2023-08-08T03:43:59;2.0;;;1.2;;
79592;SDS011;69074;45.164;9.704;2023-08-08T03:46:24;2.0;;;1.2;;
79592;SDS011;69074;45.164;9.704;2023-08-08T03:48:49;2.0;;;1.2;;
79592;SDS011;69074;45.164;9.704;2023-08-08T03:51:14;2.0;;;1.2;;
79592;SDS011;69074;45.164;9.704;2023-08-08T03:53:39;2.0;;;1.2;;
79592;SDS011;69074;45.164;9.704;2023-08-08T03:56:04;2.7;;;1.0;;
79592;SDS011;69074;45.164;9.704;2023-08-08T03:58:30;2.7;;;1.0;;
79592;SDS011;69074;45.164;9.704;2023-08-08T04:00:54;2.7;;;1.0;;
79592;SDS011;69074;45.164;9.704;2023-08-08T04:03:19;2.7;;;1.0;;
79592;SDS011;69074;45.164;9.704;2023-08-08T04:05:45;2.7;;;1.0;;
79592;SDS011;69074;45.164;9.704;2023-08-08T04:08:10;2.7;;;1.0;;
79592;SDS011;69074;45.164;9.704;2023-08-08T04:10:35;2.7;;;1.2;;
79592;SDS011;69074;45.164;9.704;2023-08-08T04:13:00;2.7;;;1.2;;
79592;SDS011;69074;45.164;9.704;2023-08-08T04:15:25;2.7;;;1.2;;
79592;SDS011;69074;45.164;9.704;2023-08-08T04:17:50;2.7;;;1.2;;
79592;SDS011;69074;45.164;9.704;2023-08-08T04:20:15;2.7;;;1.2;;
79592;SDS011;69074;45.164;9.704;2023-08-08T04:22:40;2.7;;;1.2;;
79592;SDS011;69074;45.164;9.704;2023-08-08T04:25:05;3.5;;;1.6;;
79592;SDS011;69074;45.164;9.704;2023-08-08T04:27:30;3.5;;;1.6;;
79592;SDS011;69074;45.164;9.704;2023-08-08T04:29:55;3.5;;;1.6;;
79592;SDS011;69074;45.164;9.704;2023-08-08T04:32:20;3.5;;;1.6;;
79592;SDS011;69074;45.164;9.704;2023-08-08T04:34:45;3.5;;;1.6;;
79592;SDS011;69074;45.164;9.704;2023-08-08T04:37:10;3.5;;;1.6;;
79592;SDS011;69074;45.164;9.704;2023-08-08T04:39:35;1.3;;;0.9;;
79592;SDS011;69074;45.164;9.704;2023-08-08T04:42:00;1.3;;;0.9;;
79592;SDS011;69074;45.164;9.704;2023-08-08T04:44:25;1.3;;;0.9;;
79592;SDS011;69074;45.164;9.704;2023-08-08T04:46:50;1.3;;;0.9;;
79592;SDS011;69074;45.164;9.704;2023-08-08T04:49:15;1.3;;;0.9;;
79592;SDS011;69074;45.164;9.704;2023-08-08T04:51:40;1.3;;;0.9;;
79592;SDS011;69074;45.164;9.704;2023-08-08T04:54:05;1.9;;;1.0;;
79592;SDS011;69074;45.164;9.704;2023-08-08T04:56:30;1.9;;;1.0;;
79592;SDS011;69074;45.164;9.704;2023-08-08T04:58:55;1.9;;;1.0;;
79592;SDS011;69074;45.164;9.704;2023-08-08T05:01:20;1.9;;;1.0;;
79592;SDS011;69074;45.164;9.704;2023-08-08T05:03:45;1.9;;;1.0;;
79592;SDS011;69074;45.164;9.704;2023-08-08T05:06:10;1.9;;;1.0;;
79592;SDS011;69074;45.164;9.704;2023-08-08T05:08:35;1.9;;;1.0;;
79592;SDS011;69074;45.164;9.704;2023-08-08T05:11:00;2.1;;;1.2;;
79592;SDS011;69074;45.164;9.704;2023-08-08T05:13:25;2.1;;;1.2;;
79592;SDS011;69074;45.164;9.704;2023-08-08T05:15:50;2.1;;;1.2;;
79592;SDS011;69074;45.164;9.704;2023-08-08T05:18:15;2.1;;;1.2;;
79592;SDS011;69074;45.164;9.704;2023-08-08T05:20:40;2.1;;;1.2;;
79592;SDS011;69074;45.164;9.704;2023-08-08T05:23:05;2.1;;;1.2;;
79592;SDS011;69074;45.164;9.704;2023-08-08T05:25:30;2.2;;;1.1;;
79592;SDS011;69074;45.164;9.704;2023-08-08T05:27:55;2.2;;;1.1;;
79592;SDS011;69074;45.164;9.704;2023-08-08T05:30:20;2.2;;;1.1;;
79592;SDS011;69074;45.164;9.704;2023-08-08T05:32:45;2.2;;;1.1;;
79592;SDS011;69074;45.164;9.704;2023-08-08T05:35:10;2.2;;;1.1;;
79592;SDS011;69074;45.164;9.704;2023-08-08T05:37:35;2.2;;;1.1;;
79592;SDS011;69074;45.164;9.704;2023-08-08T05:40:00;2.3;;;1.1;;
79592;SDS011;69074;45.164;9.704;2023-08-08T05:42:25;2.3;;;1.1;;
79592;SDS011;69074;45.164;9.704;2023-08-08T05:44:50;2.3;;;1.1;;
79592;SDS011;69074;45.164;9.704;2023-08-08T05:47:15;2.3;;;1.1;;
79592;SDS011;69074;45.164;9.704;2023-08-08T05:49:40;2.3;;;1.1;;
79592;SDS011;69074;45.164;9.704;2023-08-08T05:52:06;2.3;;;1.1;;
79592;SDS011;69074;45.164;9.704;2023-08-08T05:54:30;2.3;;;1.5;;
79592;SDS011;69074;45.164;9.704;2023-08-08T05:56:55;2.3;;;1.5;;
79592;SDS011;69074;45.164;9.704;2023-08-08T05:59:20;2.3;;;1.5;;
79592;SDS011;69074;45.164;9.704;2023-08-08T06:01:45;2.3;;;1.5;;
79592;SDS011;69074;45.164;9.704;2023-08-08T06:04:10;2.3;;;1.5;;
79592;SDS011;69074;45.164;9.704;2023-08-08T06:06:35;2.3;;;1.5;;
79592;SDS011;69074;45.164;9.704;2023-08-08T06:09:00;2.3;;;1.5;;
79592;SDS011;69074;45.164;9.704;2023-08-08T06:11:25;2.3;;;1.5;;
79592;SDS011;69074;45.164;9.704;2023-08-08T06:13:50;2.3;;;1.5;;
79592;SDS011;69074;45.164;9.704;2023-08-08T06:16:15;2.3;;;1.5;;
79592;SDS011;69074;45.164;9.704;2023-08-08T06:18:40;2.3;;;1.5;;
79592;SDS011;69074;45.164;9.704;2023-08-08T06:21:05;2.3;;;1.5;;
79592;SDS011;69074;45.164;9.704;2023-08-08T06:23:30;2.3;;;1.5;;
79592;SDS011;69074;45.164;9.704;2023-08-08T06:25:55;2.3;;;1.5;;
79592;SDS011;69074;45.164;9.704;2023-08-08T06:28:20;2.3;;;1.5;;
79592;SDS011;69074;45.164;9.704;2023-08-08T06:30:45;2.3;;;1.5;;
79592;SDS011;69074;45.164;9.704;2023-08-08T06:33:11;2.3;;;1.5;;
79592;SDS011;69074;45.164;9.704;2023-08-08T06:35:36;2.3;;;1.5;;
79592;SDS011;69074;45.164;9.704;2023-08-08T06:38:01;2.3;;;1.5;;
79592;SDS011;69074;45.164;9.704;2023-08-08T06:40:26;2.3;;;1.5;;
79592;SDS011;69074;45.164;9.704;2023-08-08T06:42:51;2.3;;;1.5;;
79592;SDS011;69074;45.164;9.704;2023-08-08T06:45:16;2.3;;;1.5;;
79592;SDS011;69074;45.164;9.704;2023-08-08T06:47:41;2.3;;;1.5;;
79592;SDS011;69074;45.164;9.704;2023-08-08T06:50:06;2.3;;;1.5;;
79592;SDS011;69074;45.164;9.704;2023-08-08T06:52:31;2.3;;;1.5;;
79592;SDS011;69074;45.164;9.704;2023-08-08T06:54:56;2.3;;;1.5;;
79592;SDS011;69074;45.164;9.704;2023-08-08T06:57:21;2.3;;;1.5;;
79592;SDS011;69074;45.164;9.704;2023-08-08T06:59:46;2.3;;;1.5;;
79592;SDS011;69074;45.164;9.704;2023-08-08T07:02:11;2.3;;;1.5;;
79592;SDS011;69074;45.164;9.704;2023-08-08T07:04:36;2.3;;;1.5;;
79592;SDS011;69074;45.164;9.704;2023-08-08T07:07:01;2.3;;;1.5;;
79592;SDS011;69074;45.164;9.704;2023-08-08T07:09:26;2.3;;;1.5;;
79592;SDS011;69074;45.164;9.704;2023-08-08T07:11:51;2.3;;;1.5;;
79592;SDS011;69074;45.164;9.704;2023-08-08T07:14:16;2.3;;;1.5;;
79592;SDS011;69074;45.164;9.704;2023-08-08T07:16:41;2.3;;;1.5;;
79592;SDS011;69074;45.164;9.704;2023-08-08T07:19:06;2.3;;;1.5;;
79592;SDS011;69074;45.164;9.704;2023-08-08T07:21:31;2.3;;;1.5;;
79592;SDS011;69074;45.164;9.704;2023-08-08T07:23:56;2.3;;;1.5;;
79592;SDS011;69074;45.164;9.704;2023-08-08T07:26:21;2.3;;;1.5;;
79592;SDS011;69074;45.164;9.704;2023-08-08T07:28:46;2.3;;;1.5;;
79592;SDS011;69074;45.164;9.704;2023-08-08T07:31:11;2.3;;;1.5;;
79592;SDS011;69074;45.164;9.704;2023-08-08T07:33:36;2.3;;;1.5;;
79592;SDS011;69074;45.164;9.704;2023-08-08T07:36:01;2.3;;;1.5;;
79592;SDS011;69074;45.164;9.704;2023-08-08T07:38:26;2.3;;;1.5;;
79592;SDS011;69074;45.164;9.704;2023-08-08T07:40:51;2.3;;;1.5;;
79592;SDS011;69074;45.164;9.704;2023-08-08T07:43:16;2.3;;;1.5;;
79592;SDS011;69074;45.164;9.704;2023-08-08T07:45:41;2.3;;;1.5;;
79592;SDS011;69074;45.164;9.704;2023-08-08T07:48:06;2.3;;;1.5;;
79592;SDS011;69074;45.164;9.704;2023-08-08T07:50:31;2.3;;;1.5;;
79592;SDS011;69074;45.164;9.704;2023-08-08T07:52:56;2.3;;;1.5;;
79592;SDS011;69074;45.164;9.704;2023-08-08T07:55:21;2.3;;;1.5;;
79592;SDS011;69074;45.164;9.704;2023-08-08T07:57:46;2.3;;;1.5;;
79592;SDS011;69074;45.164;9.704;2023-08-08T08:00:11;2.3;;;1.5;;
79592;SDS011;69074;45.164;9.704;2023-08-08T08:02:36;2.3;;;1.5;;
79592;SDS011;69074;45.164;9.704;2023-08-08T08:05:01;2.3;;;1.5;;
79592;SDS011;69074;45.164;9.704;2023-08-08T08:07:26;2.3;;;1.5;;
79592;SDS011;69074;45.164;9.704;2023-08-08T08:09:51;2.3;;;1.5;;
79592;SDS011;69074;45.164;9.704;2023-08-08T08:12:16;2.3;;;1.5;;
79592;SDS011;69074;45.164;9.704;2023-08-08T08:14:41;2.3;;;1.5;;
79592;SDS011;69074;45.164;9.704;2023-08-08T08:17:06;2.3;;;1.5;;
79592;SDS011;69074;45.164;9.704;2023-08-08T08:19:31;2.3;;;1.5;;
79592;SDS011;69074;45.164;9.704;2023-08-08T08:21:56;2.3;;;1.5;;
79592;SDS011;69074;45.164;9.704;2023-08-08T08:24:21;2.3;;;1.5;;
79592;SDS011;69074;45.164;9.704;2023-08-08T08:26:46;2.3;;;1.5;;
79592;SDS011;69074;45.164;9.704;2023-08-08T08:29:11;2.3;;;1.5;;
79592;SDS011;69074;45.164;9.704;2023-08-08T08:31:36;2.3;;;1.5;;
79592;SDS011;69074;45.164;9.704;2023-08-08T08:34:01;2.3;;;1.5;;
79592;SDS011;69074;45.164;9.704;2023-08-08T08:36:26;2.3;;;1.5;;
79592;SDS011;69074;45.164;9.704;2023-08-08T08:38:51;2.3;;;1.5;;
79592;SDS011;69074;45.164;9.704;2023-08-08T08:41:17;2.3;;;1.5;;
79592;SDS011;69074;45.164;9.704;2023-08-08T08:43:41;2.3;;;1.5;;
79592;SDS011;69074;45.164;9.704;2023-08-08T08:46:06;2.3;;;1.5;;
79592;SDS011;69074;45.164;9.704;2023-08-08T08:48:31;2.3;;;1.5;;
79592;SDS011;69074;45.164;9.704;2023-08-08T08:50:56;2.3;;;1.5;;
79592;SDS011;69074;45.164;9.704;2023-08-08T08:53:21;2.3;;;1.5;;
79592;SDS011;69074;45.164;9.704;2023-08-08T08:55:46;2.3;;;1.5;;
79592;SDS011;69074;45.164;9.704;2023-08-08T08:58:13;2.3;;;1.5;;
79592;SDS011;69074;45.164;9.704;2023-08-08T09:00:37;2.3;;;1.5;;
79592;SDS011;69074;45.164;9.704;2023-08-08T09:03:02;2.3;;;1.5;;
79592;SDS011;69074;45.164;9.704;2023-08-08T09:05:27;2.3;;;1.5;;
79592;SDS011;69074;45.164;9.704;2023-08-08T09:07:52;2.3;;;1.5;;
79592;SDS011;69074;45.164;9.704;2023-08-08T09:10:17;2.3;;;1.5;;
79592;SDS011;69074;45.164;9.704;2023-08-08T09:12:42;2.3;;;1.5;;
79592;SDS011;69074;45.164;9.704;2023-08-08T09:15:07;2.3;;;1.5;;
79592;SDS011;69074;45.164;9.704;2023-08-08T09:17:32;2.3;;;1.5;;
79592;SDS011;69074;45.164;9.704;2023-08-08T09:19:57;2.3;;;1.5;;
79592;SDS011;69074;45.164;9.704;2023-08-08T09:22:22;2.3;;;1.5;;
79592;SDS011;69074;45.164;9.704;2023-08-08T09:24:47;2.3;;;1.5;;
79592;SDS011;69074;45.164;9.704;2023-08-08T09:27:12;2.3;;;1.5;;
79592;SDS011;69074;45.164;9.704;2023-08-08T09:29:37;2.3;;;1.5;;
79592;SDS011;69074;45.164;9.704;2023-08-08T09:32:02;2.3;;;1.5;;
79592;SDS011;69074;45.164;9.704;2023-08-08T09:34:28;2.3;;;1.5;;
79592;SDS011;69074;45.164;9.704;2023-08-08T09:36:52;2.3;;;1.5;;
79592;SDS011;69074;45.164;9.704;2023-08-08T09:39:17;2.3;;;1.5;;
79592;SDS011;69074;45.164;9.704;2023-08-08T09:41:42;2.3;;;1.5;;
79592;SDS011;69074;45.164;9.704;2023-08-08T09:44:07;2.3;;;1.5;;
79592;SDS011;69074;45.164;9.704;2023-08-08T09:46:32;2.3;;;1.5;;
79592;SDS011;69074;45.164;9.704;2023-08-08T09:48:57;2.3;;;1.5;;
79592;SDS011;69074;45.164;9.704;2023-08-08T09:51:22;2.3;;;1.5;;
79592;SDS011;69074;45.164;9.704;2023-08-08T09:53:47;2.3;;;1.5;;
79592;SDS011;69074;45.164;9.704;2023-08-08T09:56:12;2.3;;;1.5;;
79592;SDS011;69074;45.164;9.704;2023-08-08T09:58:37;2.3;;;1.5;;
79592;SDS011;69074;45.164;9.704;2023-08-08T10:01:02;2.3;;;1.5;;
79592;SDS011;69074;45.164;9.704;2023-08-08T10:03:27;2.3;;;1.5;;
79592;SDS011;69074;45.164;9.704;2023-08-08T10:05:52;2.3;;;1.5;;
79592;SDS011;69074;45.164;9.704;2023-08-08T10:08:17;2.3;;;1.5;;
79592;SDS011;69074;45.164;9.704;2023-08-08T10:10:42;2.3;;;1.5;;
79592;SDS011;69074;45.164;9.704;2023-08-08T10:13:07;2.3;;;1.5;;
79592;SDS011;69074;45.164;9.704;2023-08-08T10:15:32;2.3;;;1.5;;
79592;SDS011;69074;45.164;9.704;2023-08-08T10:17:57;2.3;;;1.5;;
79592;SDS011;69074;45.164;9.704;2023-08-08T10:20:24;2.3;;;1.5;;
79592;SDS011;69074;45.164;9.704;2023-08-08T10:22:47;2.3;;;1.5;;
79592;SDS011;69074;45.164;9.704;2023-08-08T10:25:20;2.3;;;1.5;;
79592;SDS011;69074;45.164;9.704;2023-08-08T10:27:37;2.3;;;1.5;;
79592;SDS011;69074;45.164;9.704;2023-08-08T10:30:03;2.3;;;1.5;;
79592;SDS011;69074;45.164;9.704;2023-08-08T10:32:27;2.3;;;1.5;;
79592;SDS011;69074;45.164;9.704;2023-08-08T10:34:54;0.0;;;0.0;;
79592;SDS011;69074;45.164;9.704;2023-08-08T10:37:17;0.0;;;0.0;;
79592;SDS011;69074;45.164;9.704;2023-08-08T10:39:58;0.0;;;0.0;;
79592;SDS011;69074;45.164;9.704;2023-08-08T10:42:07;0.0;;;0.0;;
79592;SDS011;69074;45.164;9.704;2023-08-08T10:44:39;0.0;;;0.0;;
79592;SDS011;69074;45.164;9.704;2023-08-08T10:46:57;0.0;;;0.0;;
79592;SDS011;69074;45.164;9.704;2023-08-08T10:49:22;3.0;;;1.2;;
79592;SDS011;69074;45.164;9.704;2023-08-08T10:51:48;3.0;;;1.2;;
79592;SDS011;69074;45.164;9.704;2023-08-08T10:54:13;3.0;;;1.2;;
79592;SDS011;69074;45.164;9.704;2023-08-08T10:56:37;3.0;;;1.2;;
79592;SDS011;69074;45.164;9.704;2023-08-08T10:59:11;3.0;;;1.2;;
79592;SDS011;69074;45.164;9.704;2023-08-08T11:01:27;3.0;;;1.2;;
79592;SDS011;69074;45.164;9.704;2023-08-08T11:03:52;2.9;;;1.1;;
79592;SDS011;69074;45.164;9.704;2023-08-08T11:06:17;2.9;;;1.1;;
79592;SDS011;69074;45.164;9.704;2023-08-08T11:08:42;2.9;;;1.1;;
79592;SDS011;69074;45.164;9.704;2023-08-08T11:11:07;2.9;;;1.1;;
79592;SDS011;69074;45.164;9.704;2023-08-08T11:13:32;2.9;;;1.1;;
79592;SDS011;69074;45.164;9.704;2023-08-08T11:15:57;2.9;;;1.1;;
79592;SDS011;69074;45.164;9.704;2023-08-08T11:18:23;2.9;;;1.1;;
79592;SDS011;69074;45.164;9.704;2023-08-08T11:20:48;1.4;;;0.9;;
79592;SDS011;69074;45.164;9.704;2023-08-08T11:23:12;1.4;;;0.9;;
79592;SDS011;69074;45.164;9.704;2023-08-08T11:25:39;1.4;;;0.9;;
79592;SDS011;69074;45.164;9.704;2023-08-08T11:28:03;1.4;;;0.9;;
79592;SDS011;69074;45.164;9.704;2023-08-08T11:30:28;1.4;;;0.9;;
79592;SDS011;69074;45.164;9.704;2023-08-08T11:32:52;1.4;;;0.9;;
79592;SDS011;69074;45.164;9.704;2023-08-08T11:35:20;1.4;;;0.8;;
79592;SDS011;69074;45.164;9.704;2023-08-08T11:37:43;1.4;;;0.8;;
79592;SDS011;69074;45.164;9.704;2023-08-08T11:40:08;1.4;;;0.8;;
79592;SDS011;69074;45.164;9.704;2023-08-08T11:42:32;1.4;;;0.8;;
79592;SDS011;69074;45.164;9.704;2023-08-08T11:44:57;1.4;;;0.8;;
79592;SDS011;69074;45.164;9.704;2023-08-08T11:47:24;1.4;;;0.8;;
79592;SDS011;69074;45.164;9.704;2023-08-08T11:49:47;4.1;;;1.4;;
79592;SDS011;69074;45.164;9.704;2023-08-08T11:52:13;4.1;;;1.4;;
79592;SDS011;69074;45.164;9.704;2023-08-08T11:54:37;4.1;;;1.4;;
79592;SDS011;69074;45.164;9.704;2023-08-08T11:57:03;4.1;;;1.4;;
79592;SDS011;69074;45.164;9.704;2023-08-08T11:59:27;4.1;;;1.4;;
79592;SDS011;69074;45.164;9.704;2023-08-08T12:01:52;4.1;;;1.4;;
79592;SDS011;69074;45.164;9.704;2023-08-08T12:04:19;2.1;;;1.1;;
79592;SDS011;69074;45.164;9.704;2023-08-08T12:06:43;2.1;;;1.1;;
79592;SDS011;69074;45.164;9.704;2023-08-08T12:09:08;2.1;;;1.1;;
79592;SDS011;69074;45.164;9.704;2023-08-08T12:11:34;2.1;;;1.1;;
79592;SDS011;69074;45.164;9.704;2023-08-08T12:13:58;2.1;;;1.1;;
79592;SDS011;69074;45.164;9.704;2023-08-08T12:16:23;2.1;;;1.1;;
79592;SDS011;69074;45.164;9.704;2023-08-08T12:18:48;2.8;;;1.1;;
79592;SDS011;69074;45.164;9.704;2023-08-08T12:21:13;2.8;;;1.1;;
79592;SDS011;69074;45.164;9.704;2023-08-08T12:23:38;2.8;;;1.1;;
79592;SDS011;69074;45.164;9.704;2023-08-08T12:26:03;2.8;;;1.1;;
79592;SDS011;69074;45.164;9.704;2023-08-08T12:28:28;2.8;;;1.1;;
79592;SDS011;69074;45.164;9.704;2023-08-08T12:30:53;2.8;;;1.1;;
79592;SDS011;69074;45.164;9.704;2023-08-08T12:33:18;2.8;;;1.1;;
79592;SDS011;69074;45.164;9.704;2023-08-08T12:35:43;4.3;;;3.2;;
79592;SDS011;69074;45.164;9.704;2023-08-08T12:38:08;4.3;;;3.2;;
79592;SDS011;69074;45.164;9.704;2023-08-08T12:40:33;4.3;;;3.2;;
79592;SDS011;69074;45.164;9.704;2023-08-08T12:42:58;4.3;;;3.2;;
79592;SDS011;69074;45.164;9.704;2023-08-08T12:45:23;4.3;;;3.2;;
79592;SDS011;69074;45.164;9.704;2023-08-08T12:47:48;4.3;;;3.2;;
79592;SDS011;69074;45.164;9.704;2023-08-08T12:50:13;3.7;;;1.5;;
79592;SDS011;69074;45.164;9.704;2023-08-08T12:52:38;3.7;;;1.5;;
79592;SDS011;69074;45.164;9.704;2023-08-08T12:55:03;3.7;;;1.5;;
79592;SDS011;69074;45.164;9.704;2023-08-08T12:57:28;3.7;;;1.5;;
79592;SDS011;69074;45.164;9.704;2023-08-08T12:59:53;3.7;;;1.5;;
79592;SDS011;69074;45.164;9.704;2023-08-08T13:02:18;3.7;;;1.5;;
79592;SDS011;69074;45.164;9.704;2023-08-08T13:04:43;1.6;;;0.9;;
79592;SDS011;69074;45.164;9.704;2023-08-08T13:07:08;1.6;;;0.9;;
79592;SDS011;69074;45.164;9.704;2023-08-08T13:09:33;1.6;;;0.9;;
79592;SDS011;69074;45.164;9.704;2023-08-08T13:11:58;1.6;;;0.9;;
79592;SDS011;69074;45.164;9.704;2023-08-08T13:14:23;1.6;;;0.9;;
79592;SDS011;69074;45.164;9.704;2023-08-08T13:16:48;1.6;;;0.9;;
79592;SDS011;69074;45.164;9.704;2023-08-08T13:19:13;2.8;;;0.9;;
79592;SDS011;69074;45.164;9.704;2023-08-08T13:21:38;2.8;;;0.9;;
79592;SDS011;69074;45.164;9.704;2023-08-08T13:24:03;2.8;;;0.9;;
79592;SDS011;69074;45.164;9.704;2023-08-08T13:26:28;2.8;;;0.9;;
79592;SDS011;69074;45.164;9.704;2023-08-08T13:28:53;2.8;;;0.9;;
79592;SDS011;69074;45.164;9.704;2023-08-08T13:31:18;2.8;;;0.9;;
79592;SDS011;69074;45.164;9.704;2023-08-08T13:33:43;2.8;;;0.9;;
79592;SDS011;69074;45.164;9.704;2023-08-08T13:36:08;2.1;;;0.7;;
79592;SDS011;69074;45.164;9.704;2023-08-08T13:38:33;2.1;;;0.7;;
79592;SDS011;69074;45.164;9.704;2023-08-08T13:40:58;2.1;;;0.7;;
79592;SDS011;69074;45.164;9.704;2023-08-08T13:43:23;2.1;;;0.7;;
79592;SDS011;69074;45.164;9.704;2023-08-08T13:45:48;2.1;;;0.7;;
79592;SDS011;69074;45.164;9.704;2023-08-08T13:48:13;2.1;;;0.7;;
79592;SDS011;69074;45.164;9.704;2023-08-08T13:50:38;3.5;;;0.7;;
79592;SDS011;69074;45.164;9.704;2023-08-08T13:53:03;3.5;;;0.7;;
79592;SDS011;69074;45.164;9.704;2023-08-08T13:55:28;3.5;;;0.7;;
79592;SDS011;69074;45.164;9.704;2023-08-08T13:57:53;3.5;;;0.7;;
79592;SDS011;69074;45.164;9.704;2023-08-08T14:00:18;3.5;;;0.7;;
79592;SDS011;69074;45.164;9.704;2023-08-08T14:02:43;3.5;;;0.7;;
79592;SDS011;69074;45.164;9.704;2023-08-08T14:05:08;4.1;;;1.5;;
79592;SDS011;69074;45.164;9.704;2023-08-08T14:07:33;4.1;;;1.5;;
79592;SDS011;69074;45.164;9.704;2023-08-08T14:09:58;4.1;;;1.5;;
79592;SDS011;69074;45.164;9.704;2023-08-08T14:12:23;4.1;;;1.5;;
79592;SDS011;69074;45.164;9.704;2023-08-08T14:14:48;4.1;;;1.5;;
79592;SDS011;69074;45.164;9.704;2023-08-08T14:17:13;4.1;;;1.5;;
79592;SDS011;69074;45.164;9.704;2023-08-08T14:19:38;2.4;;;0.9;;
79592;SDS011;69074;45.164;9.704;2023-08-08T14:22:03;2.4;;;0.9;;
79592;SDS011;69074;45.164;9.704;2023-08-08T14:24:28;2.4;;;0.9;;
79592;SDS011;69074;45.164;9.704;2023-08-08T14:26:53;2.4;;;0.9;;
79592;SDS011;69074;45.164;9.704;2023-08-08T14:29:18;2.4;;;0.9;;
79592;SDS011;69074;45.164;9.704;2023-08-08T14:31:43;2.4;;;0.9;;
79592;SDS011;69074;45.164;9.704;2023-08-08T14:34:08;6.6;;;3.2;;
79592;SDS011;69074;45.164;9.704;2023-08-08T14:36:33;6.6;;;3.2;;
79592;SDS011;69074;45.164;9.704;2023-08-08T14:38:58;6.6;;;3.2;;
79592;SDS011;69074;45.164;9.704;2023-08-08T14:41:23;6.6;;;3.2;;
79592;SDS011;69074;45.164;9.704;2023-08-08T14:43:48;6.6;;;3.2;;
79592;SDS011;69074;45.164;9.704;2023-08-08T14:46:13;6.6;;;3.2;;
79592;SDS011;69074;45.164;9.704;2023-08-08T14:48:38;6.6;;;3.2;;
79592;SDS011;69074;45.164;9.704;2023-08-08T14:51:03;3.3;;;1.1;;
79592;SDS011;69074;45.164;9.704;2023-08-08T14:53:28;3.3;;;1.1;;
79592;SDS011;69074;45.164;9.704;2023-08-08T14:55:53;3.3;;;1.1;;
79592;SDS011;69074;45.164;9.704;2023-08-08T14:58:18;3.3;;;1.1;;
79592;SDS011;69074;45.164;9.704;2023-08-08T15:00:43;3.3;;;1.1;;